createdAt,value
2022-10-17T00:00:26.411Z,19.200
2022-10-17T00:01:29.565Z,19.200
2022-10-17T00:02:27.363Z,19.200
2022-10-17T00:03:23.522Z,19.200
2022-10-17T00:04:27.130Z,19.200
2022-10-17T00:05:28.441Z,19.200
2022-10-17T00:06:28.231Z,19.200
2022-10-17T00:07:35.519Z,19.200
2022-10-17T00:08:25.743Z,19.200
2022-10-17T00:09:28.690Z,19.100
2022-10-17T00:10:23.974Z,19.100
2022-10-17T00:11:31.097Z,19.100
2022-10-17T00:12:25.448Z,19.100
2022-10-17T00:13:22.563Z,19.100
2022-10-17T00:14:38.433Z,19.100
2022-10-17T00:16:20.675Z,19.100
2022-10-17T00:17:21.470Z,19.100
2022-10-17T00:18:34.593Z,19.200
2022-10-17T00:19:27.017Z,19.100
2022-10-17T00:20:20.103Z,19.100
2022-10-17T00:21:33.034Z,19.100
2022-10-17T00:22:30.538Z,19.100
2022-10-17T00:23:29.393Z,19.100
2022-10-17T00:24:23.167Z,19.100
2022-10-17T00:25:35.334Z,19.100
2022-10-17T00:26:20.384Z,19.100
2022-10-17T00:27:28.311Z,19.100
2022-10-17T00:28:35.090Z,19.000
2022-10-17T00:29:31.285Z,19.000
2022-10-17T00:30:22.141Z,19.000
2022-10-17T00:31:22.371Z,19.000
2022-10-17T00:33:25.310Z,19.000
2022-10-17T00:34:25.957Z,19.000
2022-10-17T00:35:21.464Z,19.000
2022-10-17T00:37:25.103Z,19.000
2022-10-17T00:38:24.649Z,19.000
2022-10-17T00:39:31.417Z,19.000
2022-10-17T00:40:27.266Z,19.000
2022-10-17T00:41:25.082Z,19.000
2022-10-17T00:42:29.728Z,19.000
2022-10-17T00:43:29.421Z,18.900
2022-10-17T00:44:21.388Z,18.900
2022-10-17T00:45:24.135Z,18.900
2022-10-17T00:46:25.849Z,18.900
2022-10-17T00:47:25.882Z,18.900
2022-10-17T00:48:23.415Z,18.900
2022-10-17T00:49:29.172Z,18.900
2022-10-17T00:50:26.004Z,18.800
2022-10-17T00:51:25.005Z,18.800
2022-10-17T00:52:23.137Z,18.800
2022-10-17T00:53:32.689Z,18.800
2022-10-17T00:54:23.908Z,18.800
2022-10-17T00:55:23.052Z,18.800
2022-10-17T00:56:34.677Z,18.800
2022-10-17T00:57:28.202Z,18.800
2022-10-17T00:58:22.799Z,18.800
2022-10-17T00:59:23.220Z,18.800
2022-10-17T01:00:38.250Z,18.800
2022-10-17T01:39:36.867Z,18.600
2022-10-17T01:40:31.958Z,18.500
2022-10-17T01:41:25.026Z,18.500
2022-10-17T01:42:35.169Z,18.500
2022-10-17T01:43:29.701Z,18.500
2022-10-17T02:13:33.063Z,18.200
2022-10-17T02:14:29.985Z,18.200
2022-10-17T02:15:25.585Z,18.200
2022-10-17T02:16:31.573Z,18.200
2022-10-17T02:17:35.256Z,18.200
2022-10-17T02:18:50.023Z,18.200
2022-10-17T02:19:27.116Z,18.200
2022-10-17T02:20:28.591Z,18.200
2022-10-17T02:21:24.000Z,18.200
2022-10-17T02:22:28.467Z,18.200
2022-10-17T02:23:23.506Z,18.200
2022-10-17T02:25:23.053Z,18.200
2022-10-17T02:26:27.526Z,18.200
2022-10-17T02:27:35.315Z,18.200
2022-10-17T02:28:25.332Z,18.200
2022-10-17T02:29:27.166Z,18.100
2022-10-17T02:30:21.672Z,18.100
2022-10-17T02:31:32.393Z,18.100
2022-10-17T02:33:23.442Z,18.100
2022-10-17T02:34:29.316Z,18.100
2022-10-17T02:35:30.730Z,18.100
2022-10-17T02:36:22.223Z,18.100
2022-10-17T02:37:21.488Z,18.100
2022-10-17T02:38:31.281Z,18.100
2022-10-17T02:39:21.966Z,18.100
2022-10-17T02:40:23.529Z,18.100
2022-10-17T02:41:36.234Z,18.100
2022-10-17T02:42:31.623Z,18.100
2022-10-17T02:43:26.636Z,18.100
2022-10-17T02:44:21.367Z,18.100
2022-10-17T02:45:24.491Z,18.100
2022-10-17T02:46:28.411Z,18.100
2022-10-17T02:47:22.401Z,18.100
2022-10-17T02:48:19.982Z,18.100
2022-10-17T02:49:29.303Z,18.100
2022-10-17T02:50:29.617Z,18.100
2022-10-17T02:51:23.680Z,18.100
2022-10-17T02:52:40.784Z,18.100
2022-10-17T02:53:27.180Z,18.100
2022-10-17T02:54:33.347Z,18.100
2022-10-17T02:55:26.607Z,18.100
2022-10-17T02:56:21.877Z,18.100
2022-10-17T02:57:25.261Z,18.100
2022-10-17T02:58:24.141Z,18.100
2022-10-17T02:59:20.009Z,18.100
2022-10-17T03:00:31.041Z,18.100
2022-10-17T03:01:25.402Z,18.100
2022-10-17T03:02:30.300Z,18.100
2022-10-17T03:04:25.156Z,18.100
2022-10-17T03:05:33.026Z,18.100
2022-10-17T03:06:26.238Z,18.100
2022-10-17T03:07:27.099Z,18.100
2022-10-17T03:08:23.141Z,18.100
2022-10-17T03:09:37.213Z,18.100
2022-10-17T03:10:29.726Z,18.000
2022-10-17T03:11:27.171Z,18.000
2022-10-17T03:12:23.223Z,18.000
2022-10-17T03:13:23.664Z,18.000
2022-10-17T03:14:23.035Z,18.000
2022-10-17T03:15:23.038Z,18.000
2022-10-17T03:16:33.408Z,18.000
2022-10-17T03:17:43.077Z,18.000
2022-10-17T03:19:23.651Z,18.000
2022-10-17T03:20:34.705Z,18.000
2022-10-17T03:21:29.423Z,17.900
2022-10-17T03:23:23.802Z,18.000
2022-10-17T03:24:20.644Z,18.000
2022-10-17T03:25:32.301Z,18.000
2022-10-17T03:27:32.875Z,18.000
2022-10-17T03:28:29.201Z,18.000
2022-10-17T03:29:27.583Z,17.950
2022-10-17T03:30:29.697Z,17.900
2022-10-17T03:31:31.652Z,18.000
2022-10-17T03:32:25.891Z,18.000
2022-10-17T03:33:26.075Z,18.000
2022-10-17T03:35:30.802Z,18.000
2022-10-17T03:36:29.646Z,18.000
2022-10-17T03:37:31.059Z,18.000
2022-10-17T03:38:32.915Z,17.900
2022-10-17T03:39:25.550Z,18.000
2022-10-17T03:40:23.787Z,17.900
2022-10-17T03:41:27.728Z,17.900
2022-10-17T03:42:27.394Z,17.900
2022-10-17T03:43:24.616Z,17.900
2022-10-17T03:44:25.745Z,17.900
2022-10-17T03:45:29.429Z,17.900
2022-10-17T03:46:25.534Z,17.900
2022-10-17T03:47:25.403Z,17.900
2022-10-17T03:48:28.222Z,17.900
2022-10-17T03:49:27.393Z,18.000
2022-10-17T03:50:23.961Z,18.000
2022-10-17T03:51:27.397Z,17.900
2022-10-17T03:52:22.707Z,17.900
2022-10-17T03:53:26.217Z,17.900
2022-10-17T03:54:21.440Z,17.900
2022-10-17T03:55:31.642Z,17.900
2022-10-17T03:56:22.895Z,17.900
2022-10-17T03:57:24.755Z,17.900
2022-10-17T03:58:24.102Z,17.900
2022-10-17T03:59:26.161Z,17.800
2022-10-17T04:00:26.941Z,17.800
2022-10-17T04:01:23.481Z,17.800
2022-10-17T04:02:37.941Z,17.800
2022-10-17T04:04:25.358Z,17.800
2022-10-17T04:05:37.669Z,17.700
2022-10-17T04:06:31.215Z,17.800
2022-10-17T04:07:29.946Z,17.800
2022-10-17T04:08:24.385Z,17.700
2022-10-17T04:09:21.763Z,17.800
2022-10-17T04:10:22.483Z,17.800
2022-10-17T04:11:41.436Z,17.800
2022-10-17T04:13:37.783Z,17.700
2022-10-17T04:14:25.245Z,17.700
2022-10-17T04:15:23.551Z,17.700
2022-10-17T04:16:33.417Z,17.700
2022-10-17T04:17:29.462Z,17.700
2022-10-17T04:18:25.819Z,17.600
2022-10-17T04:19:23.596Z,17.600
2022-10-17T04:20:31.549Z,17.600
2022-10-17T04:21:20.508Z,17.500
2022-10-17T04:22:26.709Z,17.500
2022-10-17T04:23:35.837Z,17.500
2022-10-17T04:24:28.040Z,17.500
2022-10-17T04:25:25.348Z,17.500
2022-10-17T04:26:26.398Z,17.500
2022-10-17T04:28:27.063Z,17.500
2022-10-17T04:29:23.331Z,17.500
2022-10-17T04:30:33.445Z,17.500
2022-10-17T04:31:27.453Z,17.400
2022-10-17T04:32:23.138Z,17.400
2022-10-17T04:33:30.890Z,17.400
2022-10-17T04:34:22.057Z,17.400
2022-10-17T04:35:29.241Z,17.400
2022-10-17T04:36:21.254Z,17.400
2022-10-17T04:37:26.505Z,17.400
2022-10-17T04:38:30.572Z,17.500
2022-10-17T04:39:23.625Z,17.500
2022-10-17T04:40:33.270Z,17.500
2022-10-17T04:41:27.583Z,17.500
2022-10-17T04:42:25.625Z,17.400
2022-10-17T04:43:23.729Z,17.400
2022-10-17T04:44:28.816Z,17.450
2022-10-17T04:45:23.471Z,17.500
2022-10-17T04:46:26.548Z,17.500
2022-10-17T04:47:33.367Z,17.500
2022-10-17T04:48:31.625Z,17.500
2022-10-17T04:50:21.556Z,17.500
2022-10-17T04:51:35.531Z,17.500
2022-10-17T04:52:27.573Z,17.500
2022-10-17T04:53:25.659Z,17.500
2022-10-17T04:54:23.680Z,17.500
2022-10-17T04:55:29.441Z,17.500
2022-10-17T04:56:31.379Z,17.500
2022-10-17T04:58:31.273Z,17.500
2022-10-17T04:59:28.419Z,17.500
2022-10-17T05:00:24.857Z,17.500
2022-10-17T05:01:33.606Z,17.500
2022-10-17T05:02:29.556Z,17.500
2022-10-17T05:03:29.626Z,17.600
2022-10-17T05:04:24.885Z,17.600
2022-10-17T05:05:33.002Z,17.600
2022-10-17T05:06:27.388Z,17.700
2022-10-17T05:07:28.977Z,17.700
2022-10-17T05:08:20.778Z,17.700
2022-10-17T05:09:29.395Z,17.700
2022-10-17T05:10:29.047Z,17.700
2022-10-17T05:11:21.428Z,17.700
2022-10-17T05:12:21.717Z,17.700
2022-10-17T05:13:27.222Z,17.700
2022-10-17T05:14:24.952Z,17.700
2022-10-17T05:15:25.212Z,17.700
2022-10-17T05:16:33.366Z,17.700
2022-10-17T05:17:25.199Z,17.700
2022-10-17T05:18:23.271Z,17.600
2022-10-17T05:19:29.449Z,17.600
2022-10-17T05:20:27.263Z,17.600
2022-10-17T05:21:26.995Z,17.600
2022-10-17T05:22:21.441Z,17.600
2022-10-17T05:23:31.698Z,17.600
2022-10-17T05:24:26.088Z,17.600
2022-10-17T05:25:21.354Z,17.600
2022-10-17T05:26:22.476Z,17.600
2022-10-17T05:27:24.338Z,17.600
2022-10-17T05:28:25.406Z,17.600
2022-10-17T05:29:32.396Z,17.600
2022-10-17T05:30:23.276Z,17.600
2022-10-17T05:31:25.220Z,17.600
2022-10-17T05:32:22.856Z,17.600
2022-10-17T05:33:24.140Z,17.600
2022-10-17T05:34:29.574Z,17.600
2022-10-17T05:35:21.443Z,17.600
2022-10-17T05:36:34.208Z,17.600
2022-10-17T05:38:20.579Z,17.550
2022-10-17T05:39:25.630Z,17.500
2022-10-17T05:40:27.321Z,17.500
2022-10-17T05:41:30.724Z,17.500
2022-10-17T05:42:26.932Z,17.500
2022-10-17T05:44:22.411Z,17.500
2022-10-17T05:45:29.549Z,17.400
2022-10-17T05:48:30.457Z,17.400
2022-10-17T05:49:39.766Z,17.400
2022-10-17T05:50:22.790Z,17.400
2022-10-17T05:52:33.189Z,17.400
2022-10-17T05:53:23.651Z,17.350
2022-10-17T05:54:35.944Z,17.300
2022-10-17T05:55:21.863Z,17.300
2022-10-17T05:56:24.906Z,17.300
2022-10-17T05:57:27.326Z,17.300
2022-10-17T05:59:04.533Z,17.300
2022-10-17T05:59:29.949Z,17.300
2022-10-17T06:00:24.925Z,17.300
2022-10-17T06:01:36.017Z,17.300
2022-10-17T06:02:25.738Z,17.300
2022-10-17T06:03:25.191Z,17.300
2022-10-17T06:04:31.359Z,17.300
2022-10-17T06:05:23.017Z,17.300
2022-10-17T06:06:25.774Z,17.300
2022-10-17T06:07:25.319Z,17.300
2022-10-17T06:08:26.812Z,17.300
2022-10-17T06:09:29.216Z,17.300
2022-10-17T06:10:26.226Z,17.300
2022-10-17T06:11:37.092Z,17.200
2022-10-17T06:13:23.415Z,17.200
2022-10-17T06:14:21.593Z,17.200
2022-10-17T06:15:26.028Z,17.200
2022-10-17T06:16:31.816Z,17.200
2022-10-17T06:17:25.406Z,17.200
2022-10-17T06:18:33.600Z,17.100
2022-10-17T06:19:32.473Z,17.100
2022-10-17T06:21:21.444Z,17.100
2022-10-17T06:22:32.072Z,17.100
2022-10-17T06:23:24.423Z,17.100
2022-10-17T06:24:28.088Z,17.000
2022-10-17T06:25:33.713Z,17.000
2022-10-17T06:26:31.214Z,17.000
2022-10-17T06:27:29.503Z,17.000
2022-10-17T06:29:36.227Z,17.000
2022-10-17T06:30:30.690Z,17.000
2022-10-17T06:31:26.188Z,17.000
2022-10-17T06:32:37.100Z,17.000
2022-10-17T06:33:33.923Z,17.000
2022-10-17T06:34:28.438Z,17.000
2022-10-17T06:35:23.534Z,17.000
2022-10-17T06:36:36.108Z,16.900
2022-10-17T06:37:30.085Z,16.900
2022-10-17T06:38:25.316Z,16.900
2022-10-17T06:39:33.577Z,16.900
2022-10-17T06:40:32.907Z,16.900
2022-10-17T06:42:23.180Z,16.900
2022-10-17T06:43:27.951Z,16.900
2022-10-17T06:44:28.908Z,16.900
2022-10-17T06:45:23.429Z,16.900
2022-10-17T06:46:21.396Z,16.900
2022-10-17T06:47:36.929Z,16.900
2022-10-17T06:48:25.733Z,16.900
2022-10-17T06:49:23.326Z,16.900
2022-10-17T06:50:29.995Z,16.900
2022-10-17T06:51:23.199Z,16.900
2022-10-17T06:52:23.771Z,16.900
2022-10-17T06:53:28.679Z,16.900
2022-10-17T06:54:29.409Z,16.900
2022-10-17T06:55:29.327Z,16.900
2022-10-17T06:56:21.674Z,16.900
2022-10-17T06:57:33.607Z,17.000
2022-10-17T06:58:25.384Z,17.000
2022-10-17T06:59:23.694Z,17.000
2022-10-17T07:00:24.581Z,17.000
2022-10-17T07:01:23.435Z,17.000
2022-10-17T07:02:28.698Z,17.000
2022-10-17T07:03:23.568Z,17.000
2022-10-17T07:04:36.509Z,17.000
2022-10-17T07:07:25.411Z,17.000
2022-10-17T07:08:26.323Z,17.000
2022-10-17T07:09:25.360Z,17.050
2022-10-17T07:10:21.572Z,17.000
2022-10-17T07:11:31.309Z,17.100
2022-10-17T07:12:28.129Z,17.100
2022-10-17T07:13:25.150Z,17.100
2022-10-17T07:15:29.823Z,17.200
2022-10-17T07:16:28.577Z,17.200
2022-10-17T07:17:24.253Z,17.200
2022-10-17T07:18:22.323Z,17.200
2022-10-17T07:19:28.831Z,17.200
2022-10-17T07:20:23.413Z,17.200
2022-10-17T07:21:23.654Z,17.200
2022-10-17T07:22:29.349Z,17.200
2022-10-17T07:23:29.064Z,17.200
2022-10-17T07:24:22.701Z,17.300
2022-10-17T07:25:26.735Z,17.300
2022-10-17T07:26:27.392Z,17.300
2022-10-17T07:27:24.924Z,17.300
2022-10-17T07:28:26.368Z,17.300
2022-10-17T07:29:22.386Z,17.300
2022-10-17T07:30:25.788Z,17.300
2022-10-17T07:31:27.236Z,17.300
2022-10-17T07:32:31.175Z,17.300
2022-10-17T07:33:31.583Z,17.300
2022-10-17T07:34:25.560Z,17.300
2022-10-17T07:36:23.558Z,17.400
2022-10-17T07:38:21.578Z,17.400
2022-10-17T07:39:22.267Z,17.400
2022-10-17T07:40:27.219Z,17.400
2022-10-17T07:41:25.321Z,17.500
2022-10-17T07:42:44.987Z,17.500
2022-10-17T07:45:21.285Z,17.500
2022-10-17T07:46:27.362Z,17.500
2022-10-17T07:47:21.591Z,17.600
2022-10-17T07:48:25.470Z,17.600
2022-10-17T07:49:33.981Z,17.600
2022-10-17T07:50:33.486Z,17.600
2022-10-17T07:52:25.154Z,17.700
2022-10-17T07:53:35.000Z,17.700
2022-10-17T07:54:27.614Z,17.700
2022-10-17T07:55:23.337Z,17.700
2022-10-17T07:56:34.755Z,17.700
2022-10-17T07:57:34.028Z,17.700
2022-10-17T07:58:26.846Z,17.700
2022-10-17T07:59:21.798Z,17.700
2022-10-17T08:01:27.547Z,17.700
2022-10-17T08:02:23.871Z,17.700
2022-10-17T08:03:37.256Z,17.700
2022-10-17T08:04:31.550Z,17.700
2022-10-17T08:05:28.665Z,17.700
2022-10-17T08:06:24.471Z,17.700
2022-10-17T08:07:31.391Z,17.800
2022-10-17T08:08:30.130Z,17.800
2022-10-17T08:09:24.113Z,17.800
2022-10-17T08:10:35.575Z,17.800
2022-10-17T08:11:31.018Z,17.800
2022-10-17T08:12:25.827Z,17.800
2022-10-17T08:13:21.709Z,17.800
2022-10-17T08:14:24.112Z,17.800
2022-10-17T08:15:31.855Z,17.800
2022-10-17T08:16:20.250Z,17.800
2022-10-17T08:17:20.192Z,17.800
2022-10-17T08:18:32.282Z,17.900
2022-10-17T08:19:29.385Z,17.900
2022-10-17T08:20:21.748Z,17.900
2022-10-17T08:21:27.257Z,18.000
2022-10-17T08:22:22.674Z,18.000
2022-10-17T08:23:23.702Z,18.000
2022-10-17T08:24:24.638Z,18.000
2022-10-17T08:25:29.438Z,18.050
2022-10-17T08:26:26.578Z,18.100
2022-10-17T08:27:21.856Z,18.200
2022-10-17T08:28:34.179Z,18.200
2022-10-17T08:30:26.063Z,18.200
2022-10-17T08:31:29.764Z,18.200
2022-10-17T08:32:21.486Z,18.200
2022-10-17T08:33:21.695Z,18.200
2022-10-17T08:34:22.829Z,18.200
2022-10-17T08:35:32.006Z,18.300
2022-10-17T08:36:32.626Z,18.300
2022-10-17T08:38:35.556Z,18.300
2022-10-17T08:39:30.956Z,18.400
2022-10-17T08:40:25.449Z,18.500
2022-10-17T08:41:26.618Z,18.600
2022-10-17T08:42:35.105Z,18.600
2022-10-17T08:43:27.317Z,18.600
2022-10-17T08:44:25.941Z,18.600
2022-10-17T08:46:29.611Z,18.600
2022-10-17T08:47:23.184Z,18.650
2022-10-17T08:49:31.619Z,18.800
2022-10-17T08:50:25.197Z,18.800
2022-10-17T08:51:23.211Z,18.900
2022-10-17T08:52:22.967Z,18.900
2022-10-17T08:54:28.588Z,18.900
2022-10-17T08:55:22.827Z,18.900
2022-10-17T08:56:48.168Z,19.000
2022-10-17T08:57:30.052Z,19.000
2022-10-17T08:58:26.847Z,19.000
2022-10-17T08:59:29.215Z,19.100
2022-10-17T09:01:23.097Z,19.100
2022-10-17T09:02:27.215Z,19.100
2022-10-17T09:03:23.507Z,19.100
2022-10-17T09:04:29.018Z,19.200
2022-10-17T09:05:26.418Z,19.200
2022-10-17T09:06:28.182Z,19.200
2022-10-17T09:07:29.519Z,19.200
2022-10-17T09:08:25.704Z,19.200
2022-10-17T09:09:21.441Z,19.300
2022-10-17T09:10:21.946Z,19.300
2022-10-17T09:11:29.313Z,19.300
2022-10-17T09:12:24.029Z,19.400
2022-10-17T09:13:37.650Z,19.400
2022-10-17T09:15:21.447Z,19.400
2022-10-17T09:16:25.823Z,19.400
2022-10-17T09:17:27.998Z,19.400
2022-10-17T09:18:23.573Z,19.450
2022-10-17T09:19:25.508Z,19.500
2022-10-17T09:20:37.436Z,19.500
2022-10-17T09:21:21.483Z,19.500
2022-10-17T09:22:43.988Z,19.500
2022-10-17T09:24:32.859Z,19.600
2022-10-17T09:25:21.504Z,19.600
2022-10-17T09:26:23.627Z,19.600
2022-10-17T09:27:38.246Z,19.700
2022-10-17T09:28:27.414Z,19.700
2022-10-17T09:29:21.216Z,19.700
2022-10-17T09:30:55.302Z,19.800
2022-10-17T09:32:30.542Z,19.800
2022-10-17T09:33:35.211Z,19.800
2022-10-17T09:34:34.485Z,19.800
2022-10-17T09:35:31.290Z,19.800
2022-10-17T09:36:25.396Z,19.800
2022-10-17T09:37:23.787Z,19.900
2022-10-17T09:38:21.638Z,19.900
2022-10-17T09:39:25.381Z,20.000
2022-10-17T09:40:23.637Z,20.000
2022-10-17T09:41:44.825Z,20.000
2022-10-17T09:42:33.810Z,20.000
2022-10-17T09:43:28.525Z,20.000
2022-10-17T09:44:23.021Z,20.000
2022-10-17T09:45:28.515Z,20.000
2022-10-17T09:46:21.576Z,20.000
2022-10-17T09:47:26.027Z,20.100
2022-10-17T09:48:37.313Z,20.100
2022-10-17T09:49:32.271Z,20.200
2022-10-17T09:50:21.197Z,20.200
2022-10-17T09:51:25.933Z,20.200
2022-10-17T09:52:30.664Z,20.300
2022-10-17T09:54:23.586Z,20.300
2022-10-17T09:55:22.088Z,20.400
2022-10-17T09:56:32.895Z,20.350
2022-10-17T09:57:25.416Z,20.400
2022-10-17T09:58:22.970Z,20.500
2022-10-17T09:59:33.790Z,20.500
2022-10-17T10:01:24.381Z,20.500
2022-10-17T10:03:24.031Z,20.550
2022-10-17T10:04:30.253Z,20.600
2022-10-17T10:05:37.481Z,20.600
2022-10-17T10:06:34.382Z,20.600
2022-10-17T10:07:29.535Z,20.600
2022-10-17T10:10:23.868Z,20.700
2022-10-17T10:11:25.927Z,20.750
2022-10-17T10:12:24.521Z,20.800
2022-10-17T10:13:31.637Z,20.800
2022-10-17T10:14:22.919Z,20.800
2022-10-17T10:15:27.944Z,20.800
2022-10-17T10:18:23.244Z,20.900
2022-10-17T10:19:21.867Z,20.900
2022-10-17T10:20:27.197Z,20.900
2022-10-17T10:21:31.056Z,21.000
2022-10-17T10:22:25.029Z,21.000
2022-10-17T10:23:19.247Z,21.100
2022-10-17T10:24:32.202Z,21.100
2022-10-17T10:25:29.426Z,21.100
2022-10-17T10:26:22.281Z,21.100
2022-10-17T10:27:33.908Z,21.200
2022-10-17T10:28:28.629Z,21.200
2022-10-17T10:29:23.538Z,21.200
2022-10-17T10:30:21.588Z,21.200
2022-10-17T10:31:22.576Z,21.200
2022-10-17T10:32:25.749Z,21.300
2022-10-17T10:33:22.277Z,21.300
2022-10-17T10:34:33.648Z,21.300
2022-10-17T10:35:29.082Z,21.300
2022-10-17T10:36:23.628Z,21.400
2022-10-17T10:37:22.318Z,21.400
2022-10-17T10:38:30.081Z,21.400
2022-10-17T10:39:25.519Z,21.500
2022-10-17T10:40:21.638Z,21.400
2022-10-17T10:41:32.756Z,21.500
2022-10-17T10:42:21.808Z,21.500
2022-10-17T10:43:26.873Z,21.500
2022-10-17T10:44:21.667Z,21.500
2022-10-17T10:45:47.584Z,21.600
2022-10-17T10:46:25.980Z,21.500
2022-10-17T10:47:21.805Z,21.500
2022-10-17T10:48:24.490Z,21.600
2022-10-17T10:49:29.546Z,21.600
2022-10-17T10:50:23.485Z,21.600
2022-10-17T10:51:23.825Z,21.600
2022-10-17T10:52:32.872Z,21.700
2022-10-17T10:53:26.607Z,21.700
2022-10-17T10:55:23.992Z,21.700
2022-10-17T10:56:24.156Z,21.800
2022-10-17T10:57:23.552Z,21.800
2022-10-17T10:59:23.157Z,21.800
2022-10-17T11:00:27.565Z,21.800
2022-10-17T11:01:23.605Z,21.800
2022-10-17T11:03:27.511Z,21.800
2022-10-17T11:04:23.441Z,21.800
2022-10-17T11:05:19.503Z,21.800
2022-10-17T11:06:33.946Z,21.800
2022-10-17T11:07:25.379Z,21.800
2022-10-17T11:08:25.089Z,21.800
2022-10-17T11:09:26.231Z,21.800
2022-10-17T11:10:27.770Z,21.800
2022-10-17T11:11:24.457Z,21.800
2022-10-17T11:12:19.426Z,21.800
2022-10-17T11:13:22.494Z,21.800
2022-10-17T11:14:27.755Z,21.800
2022-10-17T11:15:21.346Z,21.900
2022-10-17T11:16:30.282Z,21.900
2022-10-17T11:18:24.962Z,21.900
2022-10-17T11:19:23.781Z,21.900
2022-10-17T11:20:25.491Z,21.900
2022-10-17T11:21:27.449Z,21.900
2022-10-17T11:22:28.166Z,21.900
2022-10-17T11:23:33.204Z,21.900
2022-10-17T11:24:22.223Z,21.900
2022-10-17T11:26:24.317Z,21.900
2022-10-17T11:27:25.597Z,21.900
2022-10-17T11:28:27.315Z,21.800
2022-10-17T11:29:21.975Z,21.800
2022-10-17T11:30:33.188Z,21.800
2022-10-17T11:33:19.294Z,21.800
2022-10-17T11:34:34.569Z,21.800
2022-10-17T11:35:25.767Z,21.800
2022-10-17T11:36:25.108Z,21.800
2022-10-17T11:37:33.142Z,21.800
2022-10-17T11:38:33.634Z,21.800
2022-10-17T11:40:24.267Z,21.800
2022-10-17T11:41:25.137Z,21.800
2022-10-17T11:42:23.497Z,21.850
2022-10-17T11:43:23.973Z,21.800
2022-10-17T11:44:25.265Z,21.900
2022-10-17T11:45:30.858Z,21.900
2022-10-17T11:46:25.404Z,21.900
2022-10-17T11:47:24.240Z,21.900
2022-10-17T11:49:20.790Z,21.800
2022-10-17T11:52:04.340Z,21.900
2022-10-17T11:53:23.782Z,22.000
2022-10-17T11:54:22.098Z,22.000
2022-10-17T11:55:20.911Z,22.000
2022-10-17T11:56:31.261Z,22.000
2022-10-17T11:57:21.628Z,22.100
2022-10-17T11:58:31.793Z,22.100
2022-10-17T12:00:23.823Z,22.200
2022-10-17T12:01:19.696Z,22.200
2022-10-17T12:02:24.600Z,22.200
2022-10-17T12:03:35.952Z,22.200
2022-10-17T12:04:25.046Z,22.200
2022-10-17T12:05:35.834Z,22.300
2022-10-17T12:06:29.605Z,22.300
2022-10-17T12:07:27.183Z,22.300
2022-10-17T12:08:19.581Z,22.300
2022-10-17T12:09:27.772Z,22.400
2022-10-17T12:10:25.283Z,22.400
2022-10-17T12:11:21.585Z,22.400
2022-10-17T12:12:21.231Z,22.500
2022-10-17T12:13:28.649Z,22.400
2022-10-17T12:14:25.310Z,22.400
2022-10-17T12:15:20.152Z,22.400
2022-10-17T12:16:30.917Z,22.400
2022-10-17T12:18:23.533Z,22.300
2022-10-17T12:19:21.676Z,22.400
2022-10-17T12:20:30.172Z,22.400
2022-10-17T12:21:31.492Z,22.400
2022-10-17T12:22:19.692Z,22.300
2022-10-17T12:23:29.785Z,22.400
2022-10-17T12:24:28.994Z,22.400
2022-10-17T12:26:26.037Z,22.400
2022-10-17T12:27:31.631Z,22.400
2022-10-17T12:28:26.158Z,22.500
2022-10-17T12:29:27.162Z,22.500
2022-10-17T12:30:29.711Z,22.600
2022-10-17T12:31:33.937Z,22.600
2022-10-17T12:32:30.198Z,22.600
2022-10-17T12:34:23.092Z,22.700
2022-10-17T12:35:24.883Z,22.700
2022-10-17T12:36:19.400Z,22.700
2022-10-17T12:37:30.042Z,22.700
2022-10-17T12:38:27.349Z,22.700
2022-10-17T12:39:21.807Z,22.700
2022-10-17T12:40:23.605Z,22.700
2022-10-17T12:42:20.075Z,22.700
2022-10-17T12:43:22.063Z,22.700
2022-10-17T12:44:32.020Z,22.700
2022-10-17T12:45:28.210Z,22.700
2022-10-17T12:47:24.173Z,22.600
2022-10-17T12:48:27.703Z,22.600
2022-10-17T12:49:24.054Z,22.600
2022-10-17T12:50:25.304Z,22.600
2022-10-17T12:51:37.649Z,22.600
2022-10-17T12:52:29.362Z,22.600
2022-10-17T12:53:24.783Z,22.500
2022-10-17T12:54:25.191Z,22.500
2022-10-17T12:55:22.890Z,22.500
2022-10-17T12:56:26.538Z,22.500
2022-10-17T12:57:22.396Z,22.500
2022-10-17T12:58:22.874Z,22.500
2022-10-17T12:59:30.132Z,22.500
2022-10-17T13:00:22.266Z,22.500
2022-10-17T13:01:32.163Z,22.500
2022-10-17T13:02:27.512Z,22.500
2022-10-17T13:03:24.928Z,22.500
2022-10-17T13:04:19.818Z,22.500
2022-10-17T13:05:23.341Z,22.500
2022-10-17T13:06:29.271Z,22.500
2022-10-17T13:07:21.648Z,22.500
2022-10-17T13:08:32.198Z,22.600
2022-10-17T13:09:30.454Z,22.600
2022-10-17T13:10:24.122Z,22.600
2022-10-17T13:12:22.103Z,22.700
2022-10-17T13:13:25.515Z,22.700
2022-10-17T13:14:24.319Z,22.700
2022-10-17T13:15:37.315Z,22.700
2022-10-17T13:16:21.113Z,22.700
2022-10-17T13:17:24.210Z,22.700
2022-10-17T13:18:23.000Z,22.700
2022-10-17T13:20:30.615Z,22.700
2022-10-17T13:21:21.659Z,22.800
2022-10-17T13:22:33.864Z,22.800
2022-10-17T13:23:27.677Z,22.800
2022-10-17T13:24:24.748Z,22.800
2022-10-17T13:25:24.354Z,22.800
2022-10-17T13:26:36.600Z,22.800
2022-10-17T13:27:28.744Z,22.800
2022-10-17T13:28:22.675Z,22.850
2022-10-17T13:29:35.775Z,22.900
2022-10-17T13:30:30.985Z,22.800
2022-10-17T13:31:25.967Z,22.800
2022-10-17T13:32:23.175Z,22.900
2022-10-17T13:33:22.598Z,22.900
2022-10-17T13:34:22.246Z,22.900
2022-10-17T13:35:31.691Z,23.000
2022-10-17T13:36:31.758Z,23.000
2022-10-17T13:37:32.512Z,22.900
2022-10-17T13:38:25.850Z,22.900
2022-10-17T13:39:32.648Z,22.900
2022-10-17T13:41:36.659Z,22.900
2022-10-17T13:42:24.017Z,22.900
2022-10-17T13:43:33.450Z,22.900
2022-10-17T13:44:29.853Z,22.900
2022-10-17T13:45:21.894Z,22.900
2022-10-17T13:46:36.686Z,22.900
2022-10-17T13:47:30.715Z,22.900
2022-10-17T13:49:24.415Z,22.900
2022-10-17T13:50:43.100Z,22.900
2022-10-17T13:51:29.172Z,22.900
2022-10-17T13:52:26.032Z,23.000
2022-10-17T13:53:21.267Z,22.900
2022-10-17T13:54:29.829Z,22.900
2022-10-17T13:55:29.571Z,22.900
2022-10-17T13:57:25.869Z,22.900
2022-10-17T13:58:27.654Z,22.900
2022-10-17T13:59:26.406Z,22.900
2022-10-17T14:00:23.156Z,22.800
2022-10-17T14:01:29.873Z,22.700
2022-10-17T14:02:27.428Z,22.700
2022-10-17T14:03:21.725Z,22.700
2022-10-17T14:04:44.756Z,22.700
2022-10-17T14:05:23.778Z,22.700
2022-10-17T14:06:23.668Z,22.700
2022-10-17T14:07:22.438Z,22.800
2022-10-17T14:08:31.099Z,22.800
2022-10-17T14:09:25.562Z,22.800
2022-10-17T14:10:28.385Z,22.800
2022-10-17T14:11:22.663Z,22.800
2022-10-17T14:12:27.492Z,22.800
2022-10-17T14:13:25.705Z,22.800
2022-10-17T14:14:19.798Z,22.800
2022-10-17T14:15:31.416Z,22.800
2022-10-17T14:16:31.698Z,22.800
2022-10-17T14:18:26.811Z,22.800
2022-10-17T14:19:32.132Z,22.900
2022-10-17T14:20:57.462Z,22.900
2022-10-17T14:21:40.971Z,22.900
2022-10-17T14:22:33.726Z,22.800
2022-10-17T14:23:25.555Z,22.800
2022-10-17T14:24:26.232Z,22.800
2022-10-17T14:25:33.509Z,22.800
2022-10-17T14:26:25.624Z,22.800
2022-10-17T14:27:26.906Z,22.800
2022-10-17T14:28:26.499Z,22.800
2022-10-17T14:29:33.285Z,22.800
2022-10-17T14:30:45.022Z,22.800
2022-10-17T14:31:23.809Z,22.800
2022-10-17T14:32:22.081Z,22.800
2022-10-17T14:33:29.584Z,22.800
2022-10-17T14:35:40.978Z,22.800
2022-10-17T14:37:25.705Z,22.900
2022-10-17T14:38:24.880Z,22.900
2022-10-17T14:39:23.464Z,22.900
2022-10-17T14:40:30.074Z,22.900
2022-10-17T14:41:43.741Z,22.900
2022-10-17T14:43:24.461Z,22.900
2022-10-17T14:44:26.425Z,22.800
2022-10-17T14:45:23.846Z,22.800
2022-10-17T14:46:30.600Z,22.800
2022-10-17T14:47:43.153Z,22.800
2022-10-17T14:48:27.807Z,22.800
2022-10-17T14:49:24.780Z,22.800
2022-10-17T14:51:32.523Z,22.800